sensor_id;sensor_type;location;lat;lon;timestamp;P1;P2;P0
74880;PMS5003;63427;49.654;6.596;2022-12-29T00:01:49;6;5;
74880;PMS5003;63427;49.654;6.596;2022-12-29T00:04:15;6;5;
74880;PMS5003;63427;49.654;6.596;2022-12-29T00:06:41;5;5;
74880;PMS5003;63427;49.654;6.596;2022-12-29T00:09:06;5;5;
74880;PMS5003;63427;49.654;6.596;2022-12-29T00:11:32;5;4;
74880;PMS5003;63427;49.654;6.596;2022-12-29T00:13:57;4;4;
74880;PMS5003;63427;49.654;6.596;2022-12-29T00:16:22;3;3;
74880;PMS5003;63427;49.654;6.596;2022-12-29T00:18:48;5;5;
74880;PMS5003;63427;49.654;6.596;2022-12-29T00:21:14;6;6;
74880;PMS5003;63427;49.654;6.596;2022-12-29T00:23:39;5;5;
74880;PMS5003;63427;49.654;6.596;2022-12-29T00:26:08;4;4;
74880;PMS5003;63427;49.654;6.596;2022-12-29T00:28:30;3;3;
74880;PMS5003;63427;49.654;6.596;2022-12-29T00:30:58;6;6;
74880;PMS5003;63427;49.654;6.596;2022-12-29T00:33:22;5;5;
74880;PMS5003;63427;49.654;6.596;2022-12-29T00:35:50;2;2;
74880;PMS5003;63427;49.654;6.596;2022-12-29T00:38:12;5;5;
74880;PMS5003;63427;49.654;6.596;2022-12-29T00:40:38;4;4;
74880;PMS5003;63427;49.654;6.596;2022-12-29T00:43:03;5;5;
74880;PMS5003;63427;49.654;6.596;2022-12-29T00:45:28;3;3;
74880;PMS5003;63427;49.654;6.596;2022-12-29T00:47:54;4;4;
74880;PMS5003;63427;49.654;6.596;2022-12-29T00:50:19;4;4;
74880;PMS5003;63427;49.654;6.596;2022-12-29T00:52:45;2;2;
74880;PMS5003;63427;49.654;6.596;2022-12-29T00:55:10;5;4;
74880;PMS5003;63427;49.654;6.596;2022-12-29T00:57:36;4;4;
74880;PMS5003;63427;49.654;6.596;2022-12-29T01:00:01;4;4;
74880;PMS5003;63427;49.654;6.596;2022-12-29T01:02:28;3;3;
74880;PMS5003;63427;49.654;6.596;2022-12-29T01:04:53;5;5;
74880;PMS5003;63427;49.654;6.596;2022-12-29T01:07:18;4;4;
74880;PMS5003;63427;49.654;6.596;2022-12-29T01:09:43;4;4;
74880;PMS5003;63427;49.654;6.596;2022-12-29T01:12:09;6;6;
74880;PMS5003;63427;49.654;6.596;2022-12-29T01:14:35;3;3;
74880;PMS5003;63427;49.654;6.596;2022-12-29T01:17:00;5;4;
74880;PMS5003;63427;49.654;6.596;2022-12-29T01:19:25;6;6;
74880;PMS5003;63427;49.654;6.596;2022-12-29T01:21:51;4;3;
74880;PMS5003;63427;49.654;6.596;2022-12-29T01:24:17;4;3;
74880;PMS5003;63427;49.654;6.596;2022-12-29T01:26:42;6;5;
74880;PMS5003;63427;49.654;6.596;2022-12-29T01:29:07;7;6;
74880;PMS5003;63427;49.654;6.596;2022-12-29T01:31:33;6;6;
74880;PMS5003;63427;49.654;6.596;2022-12-29T01:33:58;5;5;
74880;PMS5003;63427;49.654;6.596;2022-12-29T01:36:24;5;5;
74880;PMS5003;63427;49.654;6.596;2022-12-29T01:38:49;6;6;
74880;PMS5003;63427;49.654;6.596;2022-12-29T01:41:16;7;6;
74880;PMS5003;63427;49.654;6.596;2022-12-29T01:43:41;6;6;
74880;PMS5003;63427;49.654;6.596;2022-12-29T01:46:07;7;7;
74880;PMS5003;63427;49.654;6.596;2022-12-29T01:48:31;5;5;
74880;PMS5003;63427;49.654;6.596;2022-12-29T01:50:57;6;6;
74880;PMS5003;63427;49.654;6.596;2022-12-29T01:53:24;5;5;
74880;PMS5003;63427;49.654;6.596;2022-12-29T01:55:48;6;6;
74880;PMS5003;63427;49.654;6.596;2022-12-29T01:58:13;4;4;
74880;PMS5003;63427;49.654;6.596;2022-12-29T02:00:39;4;4;
74880;PMS5003;63427;49.654;6.596;2022-12-29T02:03:04;5;5;
74880;PMS5003;63427;49.654;6.596;2022-12-29T02:05:32;8;8;
74880;PMS5003;63427;49.654;6.596;2022-12-29T02:07:55;5;5;
74880;PMS5003;63427;49.654;6.596;2022-12-29T02:10:22;6;6;
74880;PMS5003;63427;49.654;6.596;2022-12-29T02:12:46;5;5;
74880;PMS5003;63427;49.654;6.596;2022-12-29T02:15:12;5;5;
74880;PMS5003;63427;49.654;6.596;2022-12-29T02:17:41;7;7;
74880;PMS5003;63427;49.654;6.596;2022-12-29T02:22:30;7;6;
74880;PMS5003;63427;49.654;6.596;2022-12-29T02:27:31;6;5;
74880;PMS5003;63427;49.654;6.596;2022-12-29T02:29:51;4;4;
74880;PMS5003;63427;49.654;6.596;2022-12-29T02:32:12;7;7;
74880;PMS5003;63427;49.654;6.596;2022-12-29T02:34:39;5;5;
74880;PMS5003;63427;49.654;6.596;2022-12-29T02:37:03;4;4;
74880;PMS5003;63427;49.654;6.596;2022-12-29T02:39:29;5;5;
74880;PMS5003;63427;49.654;6.596;2022-12-29T02:41:56;4;4;
74880;PMS5003;63427;49.654;6.596;2022-12-29T02:44:20;8;8;
74880;PMS5003;63427;49.654;6.596;2022-12-29T02:46:44;5;5;
74880;PMS5003;63427;49.654;6.596;2022-12-29T02:49:10;7;7;
74880;PMS5003;63427;49.654;6.596;2022-12-29T02:51:35;6;5;
74880;PMS5003;63427;49.654;6.596;2022-12-29T02:54:00;4;4;
74880;PMS5003;63427;49.654;6.596;2022-12-29T02:56:25;6;5;
74880;PMS5003;63427;49.654;6.596;2022-12-29T02:58:51;6;6;
74880;PMS5003;63427;49.654;6.596;2022-12-29T03:01:21;5;4;
74880;PMS5003;63427;49.654;6.596;2022-12-29T03:03:45;4;4;
74880;PMS5003;63427;49.654;6.596;2022-12-29T03:06:12;4;3;
74880;PMS5003;63427;49.654;6.596;2022-12-29T03:08:34;4;4;
74880;PMS5003;63427;49.654;6.596;2022-12-29T03:10:59;4;4;
74880;PMS5003;63427;49.654;6.596;2022-12-29T03:13:25;4;4;
74880;PMS5003;63427;49.654;6.596;2022-12-29T03:15:51;4;3;
74880;PMS5003;63427;49.654;6.596;2022-12-29T03:18:17;4;4;
74880;PMS5003;63427;49.654;6.596;2022-12-29T03:20:41;4;4;
74880;PMS5003;63427;49.654;6.596;2022-12-29T03:23:06;4;4;
74880;PMS5003;63427;49.654;6.596;2022-12-29T03:25:32;2;2;
74880;PMS5003;63427;49.654;6.596;2022-12-29T03:27:58;5;4;
74880;PMS5003;63427;49.654;6.596;2022-12-29T03:30:23;3;3;
74880;PMS5003;63427;49.654;6.596;2022-12-29T03:32:49;4;3;
74880;PMS5003;63427;49.654;6.596;2022-12-29T03:35:14;2;2;
74880;PMS5003;63427;49.654;6.596;2022-12-29T03:37:40;4;3;
74880;PMS5003;63427;49.654;6.596;2022-12-29T03:40:05;4;4;
74880;PMS5003;63427;49.654;6.596;2022-12-29T03:42:31;5;4;
74880;PMS5003;63427;49.654;6.596;2022-12-29T03:44:56;6;5;
74880;PMS5003;63427;49.654;6.596;2022-12-29T03:47:21;5;5;
74880;PMS5003;63427;49.654;6.596;2022-12-29T03:49:46;3;3;
74880;PMS5003;63427;49.654;6.596;2022-12-29T03:52:12;5;5;
74880;PMS5003;63427;49.654;6.596;2022-12-29T03:54:38;4;4;
74880;PMS5003;63427;49.654;6.596;2022-12-29T03:57:03;5;5;
74880;PMS5003;63427;49.654;6.596;2022-12-29T03:59:28;3;3;
74880;PMS5003;63427;49.654;6.596;2022-12-29T04:01:54;2;2;
74880;PMS5003;63427;49.654;6.596;2022-12-29T04:04:19;4;3;
74880;PMS5003;63427;49.654;6.596;2022-12-29T04:06:45;5;5;
74880;PMS5003;63427;49.654;6.596;2022-12-29T04:09:10;5;5;
74880;PMS5003;63427;49.654;6.596;2022-12-29T04:11:36;3;3;
74880;PMS5003;63427;49.654;6.596;2022-12-29T04:14:01;4;3;
74880;PMS5003;63427;49.654;6.596;2022-12-29T04:16:27;5;5;
74880;PMS5003;63427;49.654;6.596;2022-12-29T04:18:53;5;5;
74880;PMS5003;63427;49.654;6.596;2022-12-29T04:21:18;5;5;
74880;PMS5003;63427;49.654;6.596;2022-12-29T04:23:44;4;4;
74880;PMS5003;63427;49.654;6.596;2022-12-29T04:26:09;4;4;
74880;PMS5003;63427;49.654;6.596;2022-12-29T04:28:35;6;6;
74880;PMS5003;63427;49.654;6.596;2022-12-29T04:31:00;3;3;
74880;PMS5003;63427;49.654;6.596;2022-12-29T04:33:25;6;4;
74880;PMS5003;63427;49.654;6.596;2022-12-29T04:35:51;4;4;
74880;PMS5003;63427;49.654;6.596;2022-12-29T04:38:16;4;4;
74880;PMS5003;63427;49.654;6.596;2022-12-29T04:40:42;4;4;
74880;PMS5003;63427;49.654;6.596;2022-12-29T04:43:08;2;2;
74880;PMS5003;63427;49.654;6.596;2022-12-29T04:45:33;4;3;
74880;PMS5003;63427;49.654;6.596;2022-12-29T04:47:58;3;3;
74880;PMS5003;63427;49.654;6.596;2022-12-29T04:50:24;2;2;
74880;PMS5003;63427;49.654;6.596;2022-12-29T04:52:49;4;3;
74880;PMS5003;63427;49.654;6.596;2022-12-29T04:55:15;4;4;
74880;PMS5003;63427;49.654;6.596;2022-12-29T04:57:40;3;3;
74880;PMS5003;63427;49.654;6.596;2022-12-29T05:00:06;4;4;
74880;PMS5003;63427;49.654;6.596;2022-12-29T05:02:31;3;3;
74880;PMS5003;63427;49.654;6.596;2022-12-29T05:04:57;3;3;
74880;PMS5003;63427;49.654;6.596;2022-12-29T05:07:22;4;4;
74880;PMS5003;63427;49.654;6.596;2022-12-29T05:09:48;2;2;
74880;PMS5003;63427;49.654;6.596;2022-12-29T05:12:13;3;3;
74880;PMS5003;63427;49.654;6.596;2022-12-29T05:14:39;3;3;
74880;PMS5003;63427;49.654;6.596;2022-12-29T05:17:04;3;2;
74880;PMS5003;63427;49.654;6.596;2022-12-29T05:19:30;2;2;
74880;PMS5003;63427;49.654;6.596;2022-12-29T05:21:55;3;3;
74880;PMS5003;63427;49.654;6.596;2022-12-29T05:24:21;3;3;
74880;PMS5003;63427;49.654;6.596;2022-12-29T05:26:46;3;2;
74880;PMS5003;63427;49.654;6.596;2022-12-29T05:29:12;3;3;
74880;PMS5003;63427;49.654;6.596;2022-12-29T05:31:37;4;4;
74880;PMS5003;63427;49.654;6.596;2022-12-29T05:34:03;5;4;
74880;PMS5003;63427;49.654;6.596;2022-12-29T05:36:28;3;3;
74880;PMS5003;63427;49.654;6.596;2022-12-29T05:38:54;4;4;
74880;PMS5003;63427;49.654;6.596;2022-12-29T05:41:19;4;4;
74880;PMS5003;63427;49.654;6.596;2022-12-29T05:43:45;4;4;
74880;PMS5003;63427;49.654;6.596;2022-12-29T05:46:10;4;4;
74880;PMS5003;63427;49.654;6.596;2022-12-29T05:48:36;5;5;
74880;PMS5003;63427;49.654;6.596;2022-12-29T05:51:01;4;4;
74880;PMS5003;63427;49.654;6.596;2022-12-29T05:53:27;5;5;
74880;PMS5003;63427;49.654;6.596;2022-12-29T05:55:52;3;2;
74880;PMS5003;63427;49.654;6.596;2022-12-29T05:58:18;5;5;
74880;PMS5003;63427;49.654;6.596;2022-12-29T06:00:43;4;4;
74880;PMS5003;63427;49.654;6.596;2022-12-29T06:03:09;3;3;
74880;PMS5003;63427;49.654;6.596;2022-12-29T06:05:34;3;3;
74880;PMS5003;63427;49.654;6.596;2022-12-29T06:08:00;4;3;
74880;PMS5003;63427;49.654;6.596;2022-12-29T06:10:25;4;4;
74880;PMS5003;63427;49.654;6.596;2022-12-29T06:12:51;6;5;
74880;PMS5003;63427;49.654;6.596;2022-12-29T06:15:16;3;3;
74880;PMS5003;63427;49.654;6.596;2022-12-29T06:17:42;5;3;
74880;PMS5003;63427;49.654;6.596;2022-12-29T06:20:08;5;5;
74880;PMS5003;63427;49.654;6.596;2022-12-29T06:22:33;4;4;
74880;PMS5003;63427;49.654;6.596;2022-12-29T06:24:58;6;5;
74880;PMS5003;63427;49.654;6.596;2022-12-29T06:27:24;4;4;
74880;PMS5003;63427;49.654;6.596;2022-12-29T06:29:49;5;5;
74880;PMS5003;63427;49.654;6.596;2022-12-29T06:32:15;6;5;
74880;PMS5003;63427;49.654;6.596;2022-12-29T06:34:40;4;4;
74880;PMS5003;63427;49.654;6.596;2022-12-29T06:37:06;5;5;
74880;PMS5003;63427;49.654;6.596;2022-12-29T06:39:31;5;5;
74880;PMS5003;63427;49.654;6.596;2022-12-29T06:41:57;3;3;
74880;PMS5003;63427;49.654;6.596;2022-12-29T06:44:23;6;6;
74880;PMS5003;63427;49.654;6.596;2022-12-29T06:46:48;4;4;
74880;PMS5003;63427;49.654;6.596;2022-12-29T06:49:14;5;5;
74880;PMS5003;63427;49.654;6.596;2022-12-29T06:51:39;6;6;
74880;PMS5003;63427;49.654;6.596;2022-12-29T06:54:05;5;5;
74880;PMS5003;63427;49.654;6.596;2022-12-29T06:56:30;5;5;
74880;PMS5003;63427;49.654;6.596;2022-12-29T06:58:55;5;5;
74880;PMS5003;63427;49.654;6.596;2022-12-29T07:01:21;5;5;
74880;PMS5003;63427;49.654;6.596;2022-12-29T07:03:47;5;4;
74880;PMS5003;63427;49.654;6.596;2022-12-29T07:06:12;6;5;
74880;PMS5003;63427;49.654;6.596;2022-12-29T07:08:38;5;5;
74880;PMS5003;63427;49.654;6.596;2022-12-29T07:11:03;6;6;
74880;PMS5003;63427;49.654;6.596;2022-12-29T07:13:29;5;5;
74880;PMS5003;63427;49.654;6.596;2022-12-29T07:15:54;6;6;
74880;PMS5003;63427;49.654;6.596;2022-12-29T07:18:20;6;6;
74880;PMS5003;63427;49.654;6.596;2022-12-29T07:20:45;7;7;
74880;PMS5003;63427;49.654;6.596;2022-12-29T07:23:11;5;5;
74880;PMS5003;63427;49.654;6.596;2022-12-29T07:25:36;3;3;
74880;PMS5003;63427;49.654;6.596;2022-12-29T07:28:02;6;6;
74880;PMS5003;63427;49.654;6.596;2022-12-29T07:30:28;10;10;
74880;PMS5003;63427;49.654;6.596;2022-12-29T07:32:53;7;7;
74880;PMS5003;63427;49.654;6.596;2022-12-29T07:35:19;4;4;
74880;PMS5003;63427;49.654;6.596;2022-12-29T07:37:45;5;5;
74880;PMS5003;63427;49.654;6.596;2022-12-29T07:40:10;4;4;
74880;PMS5003;63427;49.654;6.596;2022-12-29T07:42:36;5;5;
74880;PMS5003;63427;49.654;6.596;2022-12-29T07:45:02;5;5;
74880;PMS5003;63427;49.654;6.596;2022-12-29T07:47:27;3;3;
74880;PMS5003;63427;49.654;6.596;2022-12-29T07:49:52;3;3;
74880;PMS5003;63427;49.654;6.596;2022-12-29T07:52:18;5;5;
74880;PMS5003;63427;49.654;6.596;2022-12-29T07:54:43;2;2;
74880;PMS5003;63427;49.654;6.596;2022-12-29T07:57:09;4;3;
74880;PMS5003;63427;49.654;6.596;2022-12-29T07:59:34;3;3;
74880;PMS5003;63427;49.654;6.596;2022-12-29T08:02:00;3;3;
74880;PMS5003;63427;49.654;6.596;2022-12-29T08:04:25;2;2;
74880;PMS5003;63427;49.654;6.596;2022-12-29T08:06:51;3;3;
74880;PMS5003;63427;49.654;6.596;2022-12-29T08:09:17;0;0;
74880;PMS5003;63427;49.654;6.596;2022-12-29T08:11:42;2;1;
74880;PMS5003;63427;49.654;6.596;2022-12-29T08:14:07;1;1;
74880;PMS5003;63427;49.654;6.596;2022-12-29T08:16:33;1;1;
74880;PMS5003;63427;49.654;6.596;2022-12-29T08:18:58;1;1;
74880;PMS5003;63427;49.654;6.596;2022-12-29T08:21:24;1;1;
74880;PMS5003;63427;49.654;6.596;2022-12-29T08:23:49;2;1;
74880;PMS5003;63427;49.654;6.596;2022-12-29T08:26:15;2;2;
74880;PMS5003;63427;49.654;6.596;2022-12-29T08:28:40;1;1;
74880;PMS5003;63427;49.654;6.596;2022-12-29T08:31:06;2;2;
74880;PMS5003;63427;49.654;6.596;2022-12-29T08:33:31;1;0;
74880;PMS5003;63427;49.654;6.596;2022-12-29T08:35:59;1;1;
74880;PMS5003;63427;49.654;6.596;2022-12-29T08:38:22;1;1;
74880;PMS5003;63427;49.654;6.596;2022-12-29T08:40:48;0;0;
74880;PMS5003;63427;49.654;6.596;2022-12-29T08:43:13;0;0;
74880;PMS5003;63427;49.654;6.596;2022-12-29T08:45:39;1;1;
74880;PMS5003;63427;49.654;6.596;2022-12-29T08:48:04;0;0;
74880;PMS5003;63427;49.654;6.596;2022-12-29T08:50:30;0;0;
74880;PMS5003;63427;49.654;6.596;2022-12-29T08:52:55;0;0;
74880;PMS5003;63427;49.654;6.596;2022-12-29T08:55:21;0;0;
74880;PMS5003;63427;49.654;6.596;2022-12-29T08:57:46;0;0;
74880;PMS5003;63427;49.654;6.596;2022-12-29T09:00:12;0;0;
74880;PMS5003;63427;49.654;6.596;2022-12-29T09:02:37;0;0;
74880;PMS5003;63427;49.654;6.596;2022-12-29T09:05:04;1;1;
74880;PMS5003;63427;49.654;6.596;2022-12-29T09:07:28;0;0;
74880;PMS5003;63427;49.654;6.596;2022-12-29T09:09:54;1;1;
74880;PMS5003;63427;49.654;6.596;2022-12-29T09:12:19;0;0;
74880;PMS5003;63427;49.654;6.596;2022-12-29T09:14:45;0;0;
74880;PMS5003;63427;49.654;6.596;2022-12-29T09:17:10;0;0;
74880;PMS5003;63427;49.654;6.596;2022-12-29T09:19:36;0;0;
74880;PMS5003;63427;49.654;6.596;2022-12-29T09:22:02;0;0;
74880;PMS5003;63427;49.654;6.596;2022-12-29T09:24:27;0;0;
74880;PMS5003;63427;49.654;6.596;2022-12-29T09:26:52;1;0;
74880;PMS5003;63427;49.654;6.596;2022-12-29T09:29:18;1;0;
74880;PMS5003;63427;49.654;6.596;2022-12-29T09:31:43;0;0;
74880;PMS5003;63427;49.654;6.596;2022-12-29T09:34:09;0;0;
74880;PMS5003;63427;49.654;6.596;2022-12-29T09:36:34;1;0;
74880;PMS5003;63427;49.654;6.596;2022-12-29T09:39:00;0;0;
74880;PMS5003;63427;49.654;6.596;2022-12-29T09:41:26;0;0;
74880;PMS5003;63427;49.654;6.596;2022-12-29T09:43:56;1;1;
74880;PMS5003;63427;49.654;6.596;2022-12-29T09:46:18;3;2;
74880;PMS5003;63427;49.654;6.596;2022-12-29T09:48:43;1;1;
74880;PMS5003;63427;49.654;6.596;2022-12-29T09:51:08;1;1;
74880;PMS5003;63427;49.654;6.596;2022-12-29T09:53:35;0;0;
74880;PMS5003;63427;49.654;6.596;2022-12-29T09:55:59;1;1;
74880;PMS5003;63427;49.654;6.596;2022-12-29T09:58:25;1;1;
74880;PMS5003;63427;49.654;6.596;2022-12-29T10:00:50;1;1;
74880;PMS5003;63427;49.654;6.596;2022-12-29T10:03:16;1;0;
74880;PMS5003;63427;49.654;6.596;2022-12-29T10:05:42;2;2;
74880;PMS5003;63427;49.654;6.596;2022-12-29T10:08:10;2;2;
74880;PMS5003;63427;49.654;6.596;2022-12-29T10:10:35;1;1;
74880;PMS5003;63427;49.654;6.596;2022-12-29T10:13:00;1;1;
74880;PMS5003;63427;49.654;6.596;2022-12-29T10:15:28;3;2;
74880;PMS5003;63427;49.654;6.596;2022-12-29T10:17:48;2;2;
74880;PMS5003;63427;49.654;6.596;2022-12-29T10:20:17;1;1;
74880;PMS5003;63427;49.654;6.596;2022-12-29T10:22:43;1;1;
74880;PMS5003;63427;49.654;6.596;2022-12-29T10:25:08;1;1;
74880;PMS5003;63427;49.654;6.596;2022-12-29T10:27:30;3;3;
74880;PMS5003;63427;49.654;6.596;2022-12-29T10:29:55;2;2;
74880;PMS5003;63427;49.654;6.596;2022-12-29T10:32:26;0;0;
74880;PMS5003;63427;49.654;6.596;2022-12-29T10:34:47;0;0;
74880;PMS5003;63427;49.654;6.596;2022-12-29T10:37:14;1;1;
74880;PMS5003;63427;49.654;6.596;2022-12-29T10:39:38;1;1;
74880;PMS5003;63427;49.654;6.596;2022-12-29T10:42:04;0;0;
74880;PMS5003;63427;49.654;6.596;2022-12-29T10:44:29;1;1;
74880;PMS5003;63427;49.654;6.596;2022-12-29T10:46:55;0;0;
74880;PMS5003;63427;49.654;6.596;2022-12-29T10:49:19;3;3;
74880;PMS5003;63427;49.654;6.596;2022-12-29T10:52:04;1;1;
74880;PMS5003;63427;49.654;6.596;2022-12-29T10:54:11;1;1;
74880;PMS5003;63427;49.654;6.596;2022-12-29T10:56:36;3;3;
74880;PMS5003;63427;49.654;6.596;2022-12-29T10:59:03;1;1;
74880;PMS5003;63427;49.654;6.596;2022-12-29T11:01:30;2;2;
74880;PMS5003;63427;49.654;6.596;2022-12-29T11:03:58;2;2;
74880;PMS5003;63427;49.654;6.596;2022-12-29T11:06:18;7;7;
74880;PMS5003;63427;49.654;6.596;2022-12-29T11:08:44;4;2;
74880;PMS5003;63427;49.654;6.596;2022-12-29T11:11:09;2;1;
74880;PMS5003;63427;49.654;6.596;2022-12-29T11:13:34;2;1;
74880;PMS5003;63427;49.654;6.596;2022-12-29T11:15:59;2;1;
74880;PMS5003;63427;49.654;6.596;2022-12-29T11:18:25;2;2;
74880;PMS5003;63427;49.654;6.596;2022-12-29T11:20:51;2;2;
74880;PMS5003;63427;49.654;6.596;2022-12-29T11:25:41;2;2;
74880;PMS5003;63427;49.654;6.596;2022-12-29T11:28:12;1;1;
74880;PMS5003;63427;49.654;6.596;2022-12-29T11:30:32;1;1;
74880;PMS5003;63427;49.654;6.596;2022-12-29T11:32:57;1;1;
74880;PMS5003;63427;49.654;6.596;2022-12-29T11:37:48;1;1;
74880;PMS5003;63427;49.654;6.596;2022-12-29T11:40:15;2;1;
74880;PMS5003;63427;49.654;6.596;2022-12-29T11:42:40;1;1;
74880;PMS5003;63427;49.654;6.596;2022-12-29T11:45:05;1;1;
74880;PMS5003;63427;49.654;6.596;2022-12-29T11:47:31;2;2;
74880;PMS5003;63427;49.654;6.596;2022-12-29T11:49:56;2;2;
74880;PMS5003;63427;49.654;6.596;2022-12-29T11:52:21;1;1;
74880;PMS5003;63427;49.654;6.596;2022-12-29T11:54:46;1;1;
74880;PMS5003;63427;49.654;6.596;2022-12-29T11:57:12;1;1;
74880;PMS5003;63427;49.654;6.596;2022-12-29T11:59:39;1;1;
74880;PMS5003;63427;49.654;6.596;2022-12-29T12:02:03;3;1;
74880;PMS5003;63427;49.654;6.596;2022-12-29T12:04:28;2;2;
74880;PMS5003;63427;49.654;6.596;2022-12-29T12:06:56;2;1;
74880;PMS5003;63427;49.654;6.596;2022-12-29T12:09:21;2;2;
74880;PMS5003;63427;49.654;6.596;2022-12-29T12:11:44;1;1;
74880;PMS5003;63427;49.654;6.596;2022-12-29T12:14:11;2;2;
74880;PMS5003;63427;49.654;6.596;2022-12-29T12:16:37;1;1;
74880;PMS5003;63427;49.654;6.596;2022-12-29T12:19:01;2;1;
74880;PMS5003;63427;49.654;6.596;2022-12-29T12:21:27;1;1;
74880;PMS5003;63427;49.654;6.596;2022-12-29T12:26:18;1;1;
74880;PMS5003;63427;49.654;6.596;2022-12-29T12:28:46;1;1;
74880;PMS5003;63427;49.654;6.596;2022-12-29T12:31:13;2;1;
74880;PMS5003;63427;49.654;6.596;2022-12-29T12:33:34;1;1;
74880;PMS5003;63427;49.654;6.596;2022-12-29T12:36:04;0;0;
74880;PMS5003;63427;49.654;6.596;2022-12-29T12:38:26;1;1;
74880;PMS5003;63427;49.654;6.596;2022-12-29T12:40:54;1;1;
74880;PMS5003;63427;49.654;6.596;2022-12-29T12:43:20;1;1;
74880;PMS5003;63427;49.654;6.596;2022-12-29T12:45:45;0;0;
74880;PMS5003;63427;49.654;6.596;2022-12-29T12:48:09;1;1;
74880;PMS5003;63427;49.654;6.596;2022-12-29T12:50:36;1;0;
74880;PMS5003;63427;49.654;6.596;2022-12-29T12:53:00;2;1;
74880;PMS5003;63427;49.654;6.596;2022-12-29T12:55:28;0;0;
74880;PMS5003;63427;49.654;6.596;2022-12-29T12:57:49;1;1;
74880;PMS5003;63427;49.654;6.596;2022-12-29T13:00:13;1;1;
74880;PMS5003;63427;49.654;6.596;2022-12-29T13:02:41;1;1;
74880;PMS5003;63427;49.654;6.596;2022-12-29T13:05:07;0;0;
74880;PMS5003;63427;49.654;6.596;2022-12-29T13:07:32;6;4;
74880;PMS5003;63427;49.654;6.596;2022-12-29T13:09:59;2;1;
74880;PMS5003;63427;49.654;6.596;2022-12-29T13:12:23;1;1;
74880;PMS5003;63427;49.654;6.596;2022-12-29T13:14:49;0;0;
74880;PMS5003;63427;49.654;6.596;2022-12-29T13:17:12;2;1;
74880;PMS5003;63427;49.654;6.596;2022-12-29T13:19:38;3;2;
74880;PMS5003;63427;49.654;6.596;2022-12-29T13:22:04;0;0;
74880;PMS5003;63427;49.654;6.596;2022-12-29T13:24:28;2;1;
74880;PMS5003;63427;49.654;6.596;2022-12-29T13:26:53;1;1;
74880;PMS5003;63427;49.654;6.596;2022-12-29T13:29:18;2;2;
74880;PMS5003;63427;49.654;6.596;2022-12-29T13:31:44;0;0;
74880;PMS5003;63427;49.654;6.596;2022-12-29T13:34:11;0;0;
74880;PMS5003;63427;49.654;6.596;2022-12-29T13:36:35;1;1;
74880;PMS5003;63427;49.654;6.596;2022-12-29T13:39:01;2;2;
74880;PMS5003;63427;49.654;6.596;2022-12-29T13:41:27;1;1;
74880;PMS5003;63427;49.654;6.596;2022-12-29T13:43:50;3;3;
74880;PMS5003;63427;49.654;6.596;2022-12-29T13:46:16;1;1;
74880;PMS5003;63427;49.654;6.596;2022-12-29T13:48:43;2;2;
74880;PMS5003;63427;49.654;6.596;2022-12-29T13:51:06;3;2;
74880;PMS5003;63427;49.654;6.596;2022-12-29T13:53:34;1;1;
74880;PMS5003;63427;49.654;6.596;2022-12-29T13:55:57;1;1;
74880;PMS5003;63427;49.654;6.596;2022-12-29T13:58:25;2;2;
74880;PMS5003;63427;49.654;6.596;2022-12-29T14:00:48;0;0;
74880;PMS5003;63427;49.654;6.596;2022-12-29T14:03:19;2;2;
74880;PMS5003;63427;49.654;6.596;2022-12-29T14:05:38;2;1;
74880;PMS5003;63427;49.654;6.596;2022-12-29T14:08:04;2;1;
74880;PMS5003;63427;49.654;6.596;2022-12-29T14:10:29;3;3;
74880;PMS5003;63427;49.654;6.596;2022-12-29T14:12:59;1;1;
74880;PMS5003;63427;49.654;6.596;2022-12-29T14:15:21;1;1;
74880;PMS5003;63427;49.654;6.596;2022-12-29T14:17:45;3;2;
74880;PMS5003;63427;49.654;6.596;2022-12-29T14:22:36;1;1;
74880;PMS5003;63427;49.654;6.596;2022-12-29T14:25:01;3;3;
74880;PMS5003;63427;49.654;6.596;2022-12-29T14:29:52;2;2;
74880;PMS5003;63427;49.654;6.596;2022-12-29T14:34:43;1;1;
74880;PMS5003;63427;49.654;6.596;2022-12-29T14:39:35;2;2;
74880;PMS5003;63427;49.654;6.596;2022-12-29T14:41:59;2;2;
74880;PMS5003;63427;49.654;6.596;2022-12-29T14:44:25;2;2;
74880;PMS5003;63427;49.654;6.596;2022-12-29T14:46:55;1;1;
74880;PMS5003;63427;49.654;6.596;2022-12-29T14:49:17;1;1;
74880;PMS5003;63427;49.654;6.596;2022-12-29T14:51:41;2;1;
74880;PMS5003;63427;49.654;6.596;2022-12-29T14:56:32;1;1;
74880;PMS5003;63427;49.654;6.596;2022-12-29T14:58:58;2;1;
74880;PMS5003;63427;49.654;6.596;2022-12-29T15:01:24;2;2;
74880;PMS5003;63427;49.654;6.596;2022-12-29T15:03:49;3;2;
74880;PMS5003;63427;49.654;6.596;2022-12-29T15:06:14;7;7;
74880;PMS5003;63427;49.654;6.596;2022-12-29T15:08:40;5;5;
74880;PMS5003;63427;49.654;6.596;2022-12-29T15:11:06;3;2;
74880;PMS5003;63427;49.654;6.596;2022-12-29T15:13:33;3;2;
74880;PMS5003;63427;49.654;6.596;2022-12-29T15:15:55;1;1;
74880;PMS5003;63427;49.654;6.596;2022-12-29T15:18:23;2;2;
74880;PMS5003;63427;49.654;6.596;2022-12-29T15:20:46;1;1;
74880;PMS5003;63427;49.654;6.596;2022-12-29T15:23:12;3;3;
74880;PMS5003;63427;49.654;6.596;2022-12-29T15:28:04;4;3;
74880;PMS5003;63427;49.654;6.596;2022-12-29T15:30:28;3;2;
74880;PMS5003;63427;49.654;6.596;2022-12-29T15:32:53;2;2;
74880;PMS5003;63427;49.654;6.596;2022-12-29T15:35:25;4;4;
74880;PMS5003;63427;49.654;6.596;2022-12-29T15:37:44;3;3;
74880;PMS5003;63427;49.654;6.596;2022-12-29T15:42:41;7;6;
74880;PMS5003;63427;49.654;6.596;2022-12-29T15:45:03;4;3;
74880;PMS5003;63427;49.654;6.596;2022-12-29T15:47:27;1;1;
74880;PMS5003;63427;49.654;6.596;2022-12-29T15:49:53;2;2;
74880;PMS5003;63427;49.654;6.596;2022-12-29T15:52:18;0;0;
74880;PMS5003;63427;49.654;6.596;2022-12-29T15:54:42;4;2;
74880;PMS5003;63427;49.654;6.596;2022-12-29T15:57:11;3;3;
74880;PMS5003;63427;49.654;6.596;2022-12-29T15:59:33;2;2;
74880;PMS5003;63427;49.654;6.596;2022-12-29T16:01:59;2;2;
74880;PMS5003;63427;49.654;6.596;2022-12-29T16:04:25;2;1;
74880;PMS5003;63427;49.654;6.596;2022-12-29T16:06:56;3;2;
74880;PMS5003;63427;49.654;6.596;2022-12-29T16:09:16;4;2;
74880;PMS5003;63427;49.654;6.596;2022-12-29T16:11:41;2;2;
74880;PMS5003;63427;49.654;6.596;2022-12-29T16:14:07;3;2;
74880;PMS5003;63427;49.654;6.596;2022-12-29T16:16:33;2;2;
74880;PMS5003;63427;49.654;6.596;2022-12-29T16:18:58;2;2;
74880;PMS5003;63427;49.654;6.596;2022-12-29T16:21:25;3;3;
74880;PMS5003;63427;49.654;6.596;2022-12-29T16:23:49;2;2;
74880;PMS5003;63427;49.654;6.596;2022-12-29T16:26:15;3;2;
74880;PMS5003;63427;49.654;6.596;2022-12-29T16:28:40;5;3;
74880;PMS5003;63427;49.654;6.596;2022-12-29T16:31:06;2;2;
74880;PMS5003;63427;49.654;6.596;2022-12-29T16:33:37;2;1;
74880;PMS5003;63427;49.654;6.596;2022-12-29T16:35:56;2;2;
74880;PMS5003;63427;49.654;6.596;2022-12-29T16:38:22;4;2;
74880;PMS5003;63427;49.654;6.596;2022-12-29T16:40:51;2;2;
74880;PMS5003;63427;49.654;6.596;2022-12-29T16:48:11;8;4;
74880;PMS5003;63427;49.654;6.596;2022-12-29T16:50:30;3;3;
74880;PMS5003;63427;49.654;6.596;2022-12-29T16:52:55;3;2;
74880;PMS5003;63427;49.654;6.596;2022-12-29T16:55:21;1;1;
74880;PMS5003;63427;49.654;6.596;2022-12-29T16:57:47;6;4;
74880;PMS5003;63427;49.654;6.596;2022-12-29T17:00:17;6;5;
74880;PMS5003;63427;49.654;6.596;2022-12-29T17:02:37;6;5;
74880;PMS5003;63427;49.654;6.596;2022-12-29T17:05:03;7;6;
74880;PMS5003;63427;49.654;6.596;2022-12-29T17:07:28;4;3;
74880;PMS5003;63427;49.654;6.596;2022-12-29T17:09:54;2;2;
74880;PMS5003;63427;49.654;6.596;2022-12-29T17:12:21;4;4;